WetterOnline ( https://www.wetteronline.de )

Wetter aktuell Kaiserslautern

Aktuelles Wetter: Weinbiet/Pfalz (557m)

6-stündlich | Neueste Meldungen
Ortszeit Temperatur Wetter
So, 26.01. 1:00 1.3° C wolkig
Sa, 25.01. 19:00 5.7° C bedeckt
Sa, 25.01. 13:00 6.8° C leicht bewölkt
Sa, 25.01. 7:00 2.2° C bedeckt
Sa, 25.01. 1:00 1.5° C wolkenlos
Fr, 24.01. 19:00 1.4° C wolkenlos
Fr, 24.01. 13:00 0.1° C wolkenlos
Fr, 24.01. 7:00 -3.0° C Nebel
Ortszeit Temperatur Wetter
So, 26.01. 2:30 1.1° C bedeckt
So, 26.01. 2:20 1.1° C bedeckt
So, 26.01. 2:10 1.0° C bedeckt
So, 26.01. 2:00 1.5° C bedeckt
So, 26.01. 1:50 1.5° C bedeckt
So, 26.01. 1:40 1.5° C bedeckt
So, 26.01. 1:30 1.0° C bedeckt
So, 26.01. 1:00 1.3° C wolkig
Ortszeit Relative Feuchte Sichtweite
So, 26.01. 1:00 96% 10 km
Sa, 25.01. 19:00 87% 10 km
Sa, 25.01. 13:00 85% 10 km
Sa, 25.01. 7:00 99% 10 km
Sa, 25.01. 1:00 97% 10 km
Fr, 24.01. 19:00 97% 9 km
Fr, 24.01. 13:00 97% 10 km
Fr, 24.01. 7:00 99% 0.4 km
Ortszeit Relative Feuchte Sichtweite
So, 26.01. 2:30 99% 10 km
So, 26.01. 2:20 99% -
So, 26.01. 2:10 99% -
So, 26.01. 2:00 96% 10 km
So, 26.01. 1:50 96% -
So, 26.01. 1:40 97% -
So, 26.01. 1:30 98% 10 km
So, 26.01. 1:00 96% 10 km
Ortszeit Niederschlagsmenge Niederschlagsart
So, 26.01. 1:00 0.0 l/m2 in 6 Std. -
Sa, 25.01. 19:00 0.0 l/m2 in 12 Std. -
Sa, 25.01. 13:00 0.0 l/m2 in 6 Std. -
Sa, 25.01. 7:00 0.0 l/m2 in 12 Std. -
Sa, 25.01. 1:00 0.0 l/m2 in 6 Std. -
Fr, 24.01. 19:00 0.0 l/m2 in 12 Std. -
Fr, 24.01. 13:00 0.0 l/m2 in 6 Std. -
Fr, 24.01. 7:00 0.0 l/m2 in 12 Std. -
Ortszeit Niederschlagsmenge Niederschlagsart
So, 26.01. 2:30 0.0 l/m2 in 1 Std. -
So, 26.01. 2:20 keine Meldung -
So, 26.01. 2:10 keine Meldung -
So, 26.01. 2:00 0.0 l/m2 in 1 Std. -
So, 26.01. 1:50 keine Meldung -
So, 26.01. 1:40 keine Meldung -
So, 26.01. 1:30 0.0 l/m2 in 1 Std. -
So, 26.01. 1:00 0.0 l/m2 in 1 Std. -
Ortszeit Stärke Spitze Richtung
km/h Bft. km/h Grad Sektor
So, 26.01. 1:00 14 3 18 140° SO
Sa, 25.01. 19:00 4 1 14 230° SW
Sa, 25.01. 13:00 11 2 22 230° SW
Sa, 25.01. 7:00 17 3 31 270° W
Sa, 25.01. 1:00 25 4 29 250° W
Fr, 24.01. 19:00 14 3 22 230° SW
Fr, 24.01. 13:00 14 3 18 250° W
Fr, 24.01. 7:00 4 1 7 240° SW
Ortszeit Stärke Spitze Richtung
km/h Bft. km/h Grad Sektor
So, 26.01. 2:30 20 4 22 140° SO
So, 26.01. 2:20 20 4 - 140° SO
So, 26.01. 2:10 22 4 - 130° SO
So, 26.01. 2:00 18 3 18 130° SO
So, 26.01. 1:50 18 3 - 130° SO
So, 26.01. 1:40 17 3 - 130° SO
So, 26.01. 1:30 18 3 18 130° SO
So, 26.01. 1:00 14 3 18 140° SO
Ortszeit Untergrenze Bedeckung Gattung
total tief tief mittel hoch
So, 26.01. 1:00 7200 m 8/8 0/8 - - -
Sa, 25.01. 19:00 2700 m 8/8 8/8 - - -
Sa, 25.01. 13:00 2700 m 8/8 1/8 - - -
Sa, 25.01. 7:00 3000 m 8/8 8/8 - - -
Sa, 25.01. 1:00 - 0/8 0/8 - - -
Fr, 24.01. 19:00 - 0/8 0/8 - - -
Fr, 24.01. 13:00 - 0/8 0/8 - - -
Fr, 24.01. 7:00 <30 m 8/8 0/8 - - -
Ortszeit Bedeckungsgrad in Achtel und Wolkenuntergrenze
So, 26.01. 2:30 8(6900m) 8(8400m) 8(9000m)
So, 26.01. 2:20 8(6900m) 8(8400m) 8(9000m)
So, 26.01. 2:10 8(6900m) 8(9000m)
So, 26.01. 2:00 8(6900m) 8(9000m)
So, 26.01. 1:50 8(6900m) 8(9000m)
So, 26.01. 1:40 8(6900m) 8(9000m)
So, 26.01. 1:30 8(6900m) 8(9000m)
So, 26.01. 1:00 8(7200m) 8(9000m)
Ortszeit Luftdruck NN (hPa) Tendenz (hPa in 3 Std.)
So, 26.01. 1:00 1022 - 0,7
Sa, 25.01. 19:00 1021 + 0,2
Sa, 25.01. 13:00 1022 - 0,1
Sa, 25.01. 7:00 1023 0,0
Sa, 25.01. 1:00 1023 - 0,3
Fr, 24.01. 19:00 1024 + 0,5
Fr, 24.01. 13:00 1025 - 0,9
Fr, 24.01. 7:00 1026 - 0,3
Ortszeit Luftdruck NN (hPa) Tendenz (hPa in 3 Std.)
So, 26.01. 2:30 1021 - 0,6
So, 26.01. 2:20 1021 keine Meldung
So, 26.01. 2:10 1021 keine Meldung
So, 26.01. 2:00 1021 - 0,8
So, 26.01. 1:50 1021 keine Meldung
So, 26.01. 1:40 1021 keine Meldung
So, 26.01. 1:30 1021 - 0,8
So, 26.01. 1:00 1022 - 0,7
Ortszeit Schneehöhe (cm)
So, 26.01. 1:00 0
Sa, 25.01. 19:00 0
Sa, 25.01. 13:00 0
Sa, 25.01. 7:00 0
Sa, 25.01. 1:00 0
Fr, 24.01. 19:00 0
Fr, 24.01. 13:00 0
Fr, 24.01. 7:00 0
Ortszeit Schneehöhe (cm)
So, 26.01. 2:30 0
So, 26.01. 2:20 0
So, 26.01. 2:10 0
So, 26.01. 2:00 0
So, 26.01. 1:50 0
So, 26.01. 1:40 0
So, 26.01. 1:30 0
So, 26.01. 1:00 0
Link zu dieser Seite / Seite empfehlen

Das Wetter in ...